createdAt,value
2023-01-23T00:02:15.766Z,5.18
2023-01-23T00:04:42.386Z,5.11
2023-01-23T00:07:09.451Z,5.06
2023-01-23T00:09:40.915Z,5.05
2023-01-23T00:12:09.683Z,4.98
2023-01-23T00:14:36.273Z,4.93
2023-01-23T00:17:03.010Z,5.02
2023-01-23T00:19:31.995Z,5.05
2023-01-23T00:22:01.130Z,4.98
2023-01-23T00:24:30.585Z,4.99
2023-01-23T00:26:59.677Z,5.01
2023-01-23T00:29:26.629Z,5.04
2023-01-23T00:31:53.705Z,5.08
2023-01-23T00:34:24.619Z,5.13
2023-01-23T00:36:51.580Z,5.12
2023-01-23T00:39:25.800Z,5.15
2023-01-23T00:41:54.881Z,5.21
2023-01-23T00:44:23.806Z,5.22
2023-01-23T00:46:50.957Z,5.23
2023-01-23T00:49:24.505Z,5.26
2023-01-23T00:51:51.735Z,5.29
2023-01-23T00:54:21.633Z,5.30
2023-01-23T00:56:52.822Z,5.29
2023-01-23T00:59:22.530Z,5.34
2023-01-23T01:01:50.326Z,5.35
2023-01-23T01:04:19.541Z,5.34
2023-01-23T01:06:46.299Z,5.39
2023-01-23T01:09:13.578Z,5.43
2023-01-23T01:11:40.264Z,5.48
2023-01-23T01:14:06.880Z,5.50
2023-01-23T01:16:33.578Z,5.52
2023-01-23T01:19:00.303Z,5.47
2023-01-23T01:21:26.892Z,5.47
2023-01-23T01:23:53.725Z,5.38
2023-01-23T01:26:23.035Z,5.42
2023-01-23T01:28:50.474Z,5.29
2023-01-23T01:31:19.930Z,5.07
2023-01-23T01:33:48.632Z,5.01
2023-01-23T01:36:18.031Z,5.02
2023-01-23T01:38:48.805Z,4.98
2023-01-23T01:41:20.725Z,5.03
2023-01-23T01:43:51.150Z,5.06
2023-01-23T01:46:20.142Z,4.95
2023-01-23T01:49:09.612Z,4.98
2023-01-23T01:51:38.691Z,5.04
2023-01-23T01:54:11.474Z,5.08
2023-01-23T01:56:51.617Z,5.11
2023-01-23T01:59:21.412Z,5.15
2023-01-23T02:01:48.751Z,5.08
2023-01-23T02:04:15.791Z,5.13
2023-01-23T02:06:42.870Z,5.13
2023-01-23T02:09:11.478Z,5.25
2023-01-23T02:11:41.717Z,5.31
2023-01-23T02:14:08.489Z,5.34
2023-01-23T02:16:40.388Z,5.42
2023-01-23T02:19:18.337Z,5.42
2023-01-23T02:21:48.668Z,5.46
2023-01-23T02:24:24.567Z,5.49
2023-01-23T02:26:57.449Z,5.55
2023-01-23T02:29:29.217Z,5.51
2023-01-23T02:31:59.746Z,5.62
2023-01-23T02:34:34.128Z,5.71
2023-01-23T02:37:08.532Z,5.68
2023-01-23T02:39:37.660Z,5.67
2023-01-23T02:42:04.860Z,5.69
2023-01-23T02:44:53.832Z,5.68
2023-01-23T02:47:23.161Z,5.66
2023-01-23T02:49:55.341Z,5.58
2023-01-23T02:52:23.096Z,5.54
2023-01-23T02:54:52.820Z,5.59
2023-01-23T02:57:19.924Z,5.64
2023-01-23T03:00:06.224Z,5.76
2023-01-23T03:02:35.203Z,5.81
2023-01-23T03:05:01.919Z,5.84
2023-01-23T03:07:30.954Z,5.79
2023-01-23T03:10:00.206Z,5.80
2023-01-23T03:12:26.810Z,5.81
2023-01-23T03:14:55.052Z,5.81
2023-01-23T03:17:22.105Z,5.85
2023-01-23T03:19:49.144Z,5.86
2023-01-23T03:22:18.314Z,5.89
2023-01-23T03:24:47.116Z,5.88
2023-01-23T03:27:13.885Z,5.89
2023-01-23T03:30:06.075Z,5.96
2023-01-23T03:32:32.741Z,5.99
2023-01-23T03:34:59.577Z,6.04
2023-01-23T03:37:26.459Z,6.08
2023-01-23T03:40:13.271Z,6.10
2023-01-23T03:42:42.284Z,6.05
2023-01-23T03:45:14.292Z,6.09
2023-01-23T03:47:44.012Z,6.17
2023-01-23T03:50:11.368Z,6.17
2023-01-23T03:52:39.474Z,6.18
2023-01-23T03:55:09.235Z,6.21
2023-01-23T03:57:36.777Z,6.30
2023-01-23T04:00:04.480Z,6.34
2023-01-23T04:02:57.239Z,6.37
2023-01-23T04:05:24.049Z,6.34
2023-01-23T04:07:53.703Z,6.34
2023-01-23T04:10:20.958Z,6.32
2023-01-23T04:12:55.418Z,6.41
2023-01-23T04:15:22.694Z,6.44
2023-01-23T04:17:51.359Z,6.46
2023-01-23T04:20:20.819Z,6.48
2023-01-23T04:22:50.436Z,6.47
2023-01-23T04:25:20.541Z,6.52
2023-01-23T04:27:47.912Z,6.54
2023-01-23T04:30:19.974Z,6.59
2023-01-23T04:32:47.005Z,6.66
2023-01-23T04:35:16.309Z,6.74
2023-01-23T04:37:43.940Z,6.78
2023-01-23T04:40:11.333Z,6.83
2023-01-23T04:42:49.059Z,6.72
2023-01-23T04:45:39.010Z,6.75
2023-01-23T04:48:24.659Z,6.73
2023-01-23T04:50:56.647Z,6.75
2023-01-23T04:53:28.190Z,6.75
2023-01-23T04:56:01.297Z,6.77
2023-01-23T04:58:28.875Z,6.73
2023-01-23T05:01:02.666Z,6.68
2023-01-23T05:03:33.103Z,6.72
2023-01-23T05:06:02.181Z,6.81
2023-01-23T05:08:28.987Z,6.82
2023-01-23T05:11:09.303Z,6.88
2023-01-23T05:13:36.193Z,6.91
2023-01-23T05:16:02.882Z,6.92
2023-01-23T05:18:37.354Z,6.98
2023-01-23T05:21:06.636Z,7.02
2023-01-23T05:23:35.697Z,7.08
2023-01-23T05:26:07.501Z,7.07
2023-01-23T05:28:34.233Z,7.07
2023-01-23T05:31:07.065Z,7.06
2023-01-23T05:33:43.058Z,7.01
2023-01-23T05:36:10.597Z,6.94
2023-01-23T05:38:40.402Z,6.94
2023-01-23T05:41:12.418Z,6.92
2023-01-23T05:44:08.683Z,6.89
2023-01-23T05:46:50.462Z,6.92
2023-01-23T05:49:20.306Z,6.91
2023-01-23T05:51:47.259Z,6.85
2023-01-23T05:54:14.195Z,6.86
2023-01-23T05:56:44.951Z,6.85
2023-01-23T05:59:40.636Z,6.92
2023-01-23T06:02:41.837Z,6.97
2023-01-23T06:05:15.140Z,6.96
2023-01-23T06:08:00.031Z,7.04
2023-01-23T06:10:29.887Z,7.09
2023-01-23T06:12:56.691Z,7.15
2023-01-23T06:15:23.343Z,7.16
2023-01-23T06:17:56.164Z,7.18
2023-01-23T06:20:24.612Z,7.25
2023-01-23T06:22:51.837Z,7.22
2023-01-23T06:25:21.155Z,7.19
2023-01-23T06:27:48.192Z,7.21
2023-01-23T06:30:14.895Z,7.17
2023-01-23T06:32:45.030Z,7.10
2023-01-23T06:35:18.835Z,7.15
2023-01-23T06:37:45.780Z,7.18
2023-01-23T06:40:15.723Z,7.23
2023-01-23T06:42:54.291Z,7.30
2023-01-23T06:45:21.182Z,7.28
2023-01-23T06:47:52.755Z,7.32
2023-01-23T06:50:22.948Z,7.40
2023-01-23T06:52:49.938Z,7.35
2023-01-23T06:55:18.022Z,7.42
2023-01-23T06:57:49.962Z,7.43
2023-01-23T07:00:17.946Z,7.52
2023-01-23T07:02:47.008Z,7.61
2023-01-23T07:05:15.850Z,7.64
2023-01-23T07:07:46.716Z,7.70
2023-01-23T07:10:13.641Z,7.78
2023-01-23T07:12:48.324Z,7.84
2023-01-23T07:15:15.183Z,7.85
2023-01-23T07:17:41.894Z,7.81
2023-01-23T07:20:08.981Z,7.89
2023-01-23T07:22:47.690Z,7.96
2023-01-23T07:25:14.357Z,8.04
2023-01-23T07:27:48.269Z,8.14
2023-01-23T07:30:15.007Z,8.22
2023-01-23T07:32:44.867Z,8.32
2023-01-23T07:35:11.896Z,8.45
2023-01-23T07:37:38.566Z,8.57
2023-01-23T07:40:05.355Z,8.62
2023-01-23T07:42:37.033Z,8.69
2023-01-23T07:45:09.724Z,8.75
2023-01-23T07:47:40.144Z,8.86
2023-01-23T07:50:12.942Z,8.95
2023-01-23T07:52:42.855Z,8.99
2023-01-23T07:55:09.657Z,9.03
2023-01-23T07:57:38.867Z,9.11
2023-01-23T08:00:06.085Z,9.23
2023-01-23T08:02:42.342Z,9.27
2023-01-23T08:05:11.182Z,9.34
2023-01-23T08:07:37.910Z,9.44
2023-01-23T08:10:07.757Z,9.51
2023-01-23T08:12:36.838Z,9.51
2023-01-23T08:15:06.410Z,9.48
2023-01-23T08:17:43.536Z,9.56
2023-01-23T08:20:11.117Z,9.62
2023-01-23T08:22:41.127Z,9.70
2023-01-23T08:25:09.840Z,9.78
2023-01-23T08:27:46.464Z,9.80
2023-01-23T08:30:15.503Z,9.83
2023-01-23T08:32:42.027Z,9.82
2023-01-23T08:35:09.095Z,9.95
2023-01-23T08:37:37.015Z,9.98
2023-01-23T08:40:04.288Z,10.02
2023-01-23T08:42:30.991Z,10.04
2023-01-23T08:44:57.594Z,10.16
2023-01-23T08:47:24.176Z,10.11
2023-01-23T08:49:53.649Z,10.09
2023-01-23T08:52:20.275Z,10.00
2023-01-23T08:54:49.394Z,10.02
2023-01-23T08:57:16.052Z,10.07
2023-01-23T08:59:47.645Z,9.98
2023-01-23T09:02:16.813Z,9.96
2023-01-23T09:04:46.782Z,9.96
2023-01-23T09:07:13.677Z,9.97
2023-01-23T09:09:40.392Z,10.02
2023-01-23T09:12:09.198Z,10.05
2023-01-23T09:14:40.618Z,10.00
2023-01-23T09:17:08.197Z,10.07
2023-01-23T09:19:35.093Z,10.11
2023-01-23T09:22:04.553Z,10.17
2023-01-23T09:24:31.415Z,10.29
2023-01-23T09:27:03.223Z,10.29
2023-01-23T09:29:34.466Z,10.32
2023-01-23T09:32:02.119Z,10.50
2023-01-23T09:34:29.355Z,10.64
2023-01-23T09:36:58.566Z,10.82
2023-01-23T09:39:25.529Z,10.92
2023-01-23T09:41:52.401Z,11.06
2023-01-23T09:44:23.391Z,11.24
2023-01-23T09:46:50.110Z,11.37
2023-01-23T09:49:22.923Z,11.37
2023-01-23T09:51:52.770Z,11.33
2023-01-23T09:54:25.913Z,11.43
2023-01-23T09:56:52.584Z,11.65
2023-01-23T09:59:40.379Z,11.70
2023-01-23T10:02:14.356Z,11.91
2023-01-23T10:04:43.348Z,11.92
2023-01-23T10:07:18.332Z,12.27
2023-01-23T10:10:00.345Z,12.62
2023-01-23T10:12:44.444Z,13.04
2023-01-23T10:15:16.465Z,13.51
2023-01-23T10:18:01.411Z,13.84
2023-01-23T10:20:52.140Z,14.13
2023-01-23T10:23:18.824Z,14.04
2023-01-23T10:25:45.412Z,13.98
2023-01-23T10:28:12.135Z,13.99
2023-01-23T10:30:43.585Z,13.95
2023-01-23T10:33:10.263Z,13.98
2023-01-23T10:35:40.137Z,13.93
2023-01-23T10:38:25.389Z,13.95
2023-01-23T10:41:11.226Z,13.97
2023-01-23T10:43:38.313Z,14.29
2023-01-23T10:46:09.019Z,14.45
2023-01-23T10:48:38.141Z,14.67
2023-01-23T10:51:26.523Z,14.65
2023-01-23T10:54:22.636Z,14.72
2023-01-23T10:56:59.441Z,15.02
2023-01-23T10:59:29.044Z,15.07
2023-01-23T11:01:58.956Z,15.01
2023-01-23T11:04:31.890Z,14.98
2023-01-23T11:07:10.123Z,14.77
2023-01-23T11:09:51.703Z,14.63
2023-01-23T11:12:20.122Z,14.87
2023-01-23T11:14:49.231Z,15.02
2023-01-23T11:17:15.933Z,15.27
2023-01-23T11:19:46.030Z,15.64
2023-01-23T11:22:31.635Z,15.98
2023-01-23T11:25:00.368Z,16.55
2023-01-23T11:27:29.828Z,16.89
2023-01-23T11:30:09.092Z,16.94
2023-01-23T11:32:38.577Z,17.00
2023-01-23T11:35:31.578Z,17.26
2023-01-23T11:38:01.035Z,17.56
2023-01-23T11:40:27.623Z,17.60
2023-01-23T11:42:54.383Z,17.74
2023-01-23T11:45:24.022Z,17.76
2023-01-23T11:48:00.816Z,17.74
2023-01-23T11:50:29.923Z,17.75
2023-01-23T11:53:07.930Z,17.76
2023-01-23T11:55:53.549Z,17.84
2023-01-23T11:58:37.114Z,17.90
2023-01-23T12:01:09.041Z,17.71
2023-01-23T12:03:41.972Z,17.53
2023-01-23T12:09:04.234Z,17.27
2023-01-23T12:11:52.822Z,17.31
2023-01-23T12:14:34.685Z,17.43
2023-01-23T12:17:27.423Z,17.52
2023-01-23T12:20:00.722Z,17.52
2023-01-23T12:22:46.252Z,17.53
2023-01-23T12:25:16.034Z,17.75
2023-01-23T12:27:47.053Z,17.85
2023-01-23T12:30:31.411Z,17.94
2023-01-23T12:33:17.295Z,18.07
2023-01-23T12:36:02.676Z,18.40
2023-01-23T12:38:31.243Z,18.67
2023-01-23T12:41:09.251Z,18.71
2023-01-23T12:43:56.165Z,18.69
2023-01-23T12:46:24.188Z,18.54
2023-01-23T12:48:59.454Z,18.18
2023-01-23T12:51:37.569Z,17.98
2023-01-23T12:54:05.349Z,17.93
2023-01-23T12:56:36.464Z,17.97
2023-01-23T12:59:11.133Z,17.94
2023-01-23T13:01:50.176Z,18.05
2023-01-23T13:04:16.868Z,18.30
2023-01-23T13:06:43.431Z,18.48
2023-01-23T13:09:24.472Z,18.47
2023-01-23T13:12:00.545Z,18.54
2023-01-23T13:14:34.776Z,18.66
2023-01-23T13:17:32.193Z,19.02
2023-01-23T13:20:39.310Z,19.37
2023-01-23T13:23:35.624Z,19.63
2023-01-23T13:26:23.172Z,19.89
2023-01-23T13:28:51.564Z,20.21
2023-01-23T13:31:37.125Z,20.22
2023-01-23T13:34:17.832Z,20.03
2023-01-23T13:36:47.311Z,19.47
2023-01-23T13:39:16.391Z,19.10
2023-01-23T13:41:43.380Z,18.78
2023-01-23T13:44:22.969Z,18.43
2023-01-23T14:31:58.139Z,16.35
2023-01-23T14:34:27.463Z,16.30
2023-01-23T14:37:09.628Z,16.22
2023-01-23T14:39:36.276Z,16.19
2023-01-23T14:42:09.574Z,16.10
2023-01-23T14:44:38.685Z,16.07
2023-01-23T14:47:10.542Z,15.97
2023-01-23T14:49:37.255Z,15.91
2023-01-23T14:52:07.715Z,15.82
2023-01-23T14:54:36.731Z,15.63
2023-01-23T14:57:09.192Z,15.45
2023-01-23T14:59:44.447Z,15.28
2023-01-23T15:02:31.430Z,15.00
2023-01-23T15:05:13.780Z,14.88
2023-01-23T15:07:47.324Z,14.83
2023-01-23T15:10:17.878Z,14.58
2023-01-23T15:13:03.519Z,14.62
2023-01-23T15:15:30.725Z,14.51
2023-01-23T15:17:58.609Z,14.39
2023-01-23T15:20:31.927Z,14.30
2023-01-23T15:22:59.002Z,14.15
2023-01-23T15:25:31.591Z,14.02
2023-01-23T15:28:00.679Z,13.95
2023-01-23T15:30:31.272Z,13.81
2023-01-23T15:33:07.657Z,13.71
2023-01-23T15:35:38.854Z,13.65
2023-01-23T15:38:09.617Z,13.58
2023-01-23T15:40:38.276Z,13.51
2023-01-23T15:43:14.016Z,13.40
2023-01-23T15:45:40.854Z,13.36
2023-01-23T15:48:08.371Z,13.30
2023-01-23T15:50:35.115Z,13.22
2023-01-23T15:53:01.776Z,13.17
2023-01-23T15:55:30.836Z,13.08
2023-01-23T15:57:57.566Z,12.97
2023-01-23T16:00:25.470Z,12.93
2023-01-23T16:02:56.747Z,12.91
2023-01-23T16:05:24.916Z,12.74
2023-01-23T16:07:51.528Z,12.74
2023-01-23T16:10:19.216Z,12.75
2023-01-23T16:12:54.381Z,12.68
2023-01-23T16:15:28.518Z,12.68
2023-01-23T16:17:55.665Z,12.66
2023-01-23T16:20:24.990Z,12.61
2023-01-23T16:22:55.065Z,12.59
2023-01-23T16:25:24.999Z,12.52
2023-01-23T16:28:01.390Z,12.36
2023-01-23T16:30:28.413Z,12.40
2023-01-23T16:32:56.736Z,12.47
2023-01-23T16:35:26.429Z,12.52
2023-01-23T16:37:55.920Z,12.55
2023-01-23T16:40:25.518Z,12.57
2023-01-23T16:42:52.598Z,12.54
2023-01-23T16:45:19.597Z,12.50
2023-01-23T16:47:46.712Z,12.48
2023-01-23T16:50:14.187Z,12.47
2023-01-23T16:52:45.515Z,12.32
2023-01-23T16:55:16.550Z,12.27
2023-01-23T16:57:45.909Z,12.25
2023-01-23T17:00:33.505Z,12.30
2023-01-23T17:03:01.941Z,12.31
2023-01-23T17:05:29.051Z,12.30
2023-01-23T17:07:55.716Z,12.31
2023-01-23T17:10:23.006Z,12.27
2023-01-23T17:12:51.938Z,12.28
2023-01-23T17:15:28.251Z,12.16
2023-01-23T17:18:19.913Z,11.97
2023-01-23T17:20:47.035Z,11.91
2023-01-23T17:23:17.212Z,11.82
2023-01-23T17:25:59.879Z,11.72
2023-01-23T17:28:27.728Z,11.80
2023-01-23T17:30:58.299Z,11.81
2023-01-23T17:33:30.432Z,11.83
2023-01-23T17:35:57.191Z,11.88
2023-01-23T17:38:24.354Z,11.77
2023-01-23T17:40:51.226Z,11.78
2023-01-23T17:43:21.212Z,11.81
2023-01-23T17:45:49.598Z,11.71
2023-01-23T17:48:21.662Z,11.61
2023-01-23T17:50:51.026Z,11.58
2023-01-23T17:53:20.502Z,11.64
2023-01-23T17:55:51.491Z,11.55
2023-01-23T17:58:20.512Z,11.57
2023-01-23T18:00:49.379Z,11.59
2023-01-23T18:03:17.048Z,11.60
2023-01-23T18:05:43.807Z,11.57
2023-01-23T18:08:10.836Z,11.57
2023-01-23T18:10:37.516Z,11.43
2023-01-23T18:13:06.621Z,11.41
2023-01-23T18:15:39.431Z,11.50
2023-01-23T18:18:09.322Z,11.53
2023-01-23T18:20:38.672Z,11.57
2023-01-23T18:23:05.938Z,11.62
2023-01-23T18:25:35.956Z,11.68
2023-01-23T18:28:08.574Z,11.73
2023-01-23T18:30:38.729Z,11.73
2023-01-23T18:33:17.635Z,11.60
2023-01-23T18:36:02.917Z,11.57
2023-01-23T18:38:44.154Z,11.62
2023-01-23T18:41:19.307Z,11.58
2023-01-23T18:44:04.446Z,11.58
2023-01-23T18:46:31.255Z,11.59
2023-01-23T18:48:58.089Z,11.57
2023-01-23T18:51:24.940Z,11.54
2023-01-23T18:54:00.837Z,11.54
2023-01-23T18:56:46.017Z,11.52
2023-01-23T18:59:22.387Z,11.48
2023-01-23T19:01:56.066Z,11.38
2023-01-23T19:04:30.832Z,11.27
2023-01-23T19:07:00.132Z,11.25
2023-01-23T19:09:31.725Z,11.23
2023-01-23T19:12:01.919Z,11.16
2023-01-23T19:14:28.976Z,11.12
2023-01-23T19:17:05.451Z,11.03
2023-01-23T19:19:33.002Z,10.94
2023-01-23T19:22:05.011Z,10.91
2023-01-23T19:24:31.907Z,10.94
2023-01-23T19:26:59.025Z,10.90
2023-01-23T19:29:27.949Z,10.90
2023-01-23T19:32:04.749Z,10.88
2023-01-23T19:34:35.794Z,10.86
2023-01-23T19:37:03.259Z,10.80
2023-01-23T19:39:30.813Z,10.74
2023-01-23T19:42:00.377Z,10.69
2023-01-23T19:44:29.105Z,10.71
2023-01-23T19:46:56.005Z,10.67
2023-01-23T19:49:25.380Z,10.64
2023-01-23T19:51:52.050Z,10.55
2023-01-23T19:54:19.293Z,10.57
2023-01-23T19:56:45.985Z,10.55
2023-01-23T19:59:15.153Z,10.43
2023-01-23T20:01:46.786Z,10.43
2023-01-23T20:04:20.305Z,10.40
2023-01-23T20:06:48.930Z,10.45
2023-01-23T20:09:15.625Z,10.47
2023-01-23T20:11:42.827Z,10.49
2023-01-23T20:14:09.707Z,10.55
2023-01-23T20:16:40.429Z,10.57
2023-01-23T20:19:07.712Z,10.57
2023-01-23T20:21:34.577Z,10.58
2023-01-23T20:24:04.034Z,10.65
2023-01-23T20:26:31.095Z,10.70
2023-01-23T20:29:00.179Z,10.75
2023-01-23T20:31:29.640Z,10.76
2023-01-23T20:33:58.819Z,10.78
2023-01-23T20:36:25.774Z,10.70
2023-01-23T20:38:55.940Z,10.68
2023-01-23T20:41:25.096Z,10.71
2023-01-23T20:43:54.172Z,10.71
2023-01-23T20:46:23.982Z,10.66
2023-01-23T20:48:53.587Z,10.67
2023-01-23T20:51:20.222Z,10.60
2023-01-23T20:53:50.475Z,10.58
2023-01-23T20:56:20.663Z,10.55
2023-01-23T20:59:08.723Z,10.58
2023-01-23T21:01:54.937Z,10.62
2023-01-23T21:04:21.885Z,10.70
2023-01-23T21:06:48.652Z,10.73
2023-01-23T21:09:17.594Z,10.71
2023-01-23T21:11:44.497Z,10.72
2023-01-23T21:14:16.084Z,10.70
2023-01-23T21:16:42.947Z,10.65
2023-01-23T21:19:09.898Z,10.70
2023-01-23T21:21:36.619Z,10.72
2023-01-23T21:24:06.162Z,10.76
2023-01-23T21:26:33.786Z,10.77
2023-01-23T21:29:00.602Z,10.82
2023-01-23T21:31:28.392Z,10.86
2023-01-23T21:33:55.010Z,10.84
2023-01-23T21:36:22.935Z,10.81
2023-01-23T21:38:51.280Z,10.81
2023-01-23T21:41:18.219Z,10.82
2023-01-23T21:43:47.176Z,10.84
2023-01-23T21:46:14.045Z,10.83
2023-01-23T21:48:43.095Z,10.82
2023-01-23T21:51:11.109Z,10.83
2023-01-23T21:53:40.643Z,10.81
2023-01-23T21:56:10.034Z,10.85
2023-01-23T21:58:37.257Z,10.88
2023-01-23T22:01:26.739Z,10.89
2023-01-23T22:03:53.404Z,10.81
2023-01-23T22:06:20.190Z,10.79
2023-01-23T22:08:49.683Z,10.71
2023-01-23T22:11:18.427Z,10.61
2023-01-23T22:13:45.115Z,10.58
2023-01-23T22:16:14.567Z,10.60
2023-01-23T22:18:41.329Z,10.60
2023-01-23T22:21:10.746Z,10.47
2023-01-23T22:23:39.890Z,10.45
2023-01-23T22:26:09.392Z,10.39
2023-01-23T22:28:38.356Z,10.33
2023-01-23T22:31:06.639Z,10.28
2023-01-23T22:33:40.352Z,10.26
2023-01-23T22:36:10.890Z,10.23
2023-01-23T22:38:37.717Z,10.19
2023-01-23T22:41:04.924Z,10.14
2023-01-23T22:43:34.360Z,9.95
2023-01-23T22:46:05.297Z,9.85
2023-01-23T22:48:32.196Z,9.88
2023-01-23T22:51:04.688Z,9.90
2023-01-23T22:53:31.472Z,9.88
2023-01-23T22:55:58.385Z,9.90
2023-01-23T22:58:25.176Z,9.92
2023-01-23T23:00:53.475Z,9.85
2023-01-23T23:03:22.979Z,9.79
2023-01-23T23:05:58.498Z,9.72
2023-01-23T23:08:27.693Z,9.69
2023-01-23T23:11:04.689Z,9.59
2023-01-23T23:13:31.631Z,9.56
2023-01-23T23:15:58.688Z,9.41
2023-01-23T23:18:25.275Z,9.41
2023-01-23T23:20:54.370Z,9.39
2023-01-23T23:23:21.511Z,9.36
2023-01-23T23:25:53.235Z,9.35
2023-01-23T23:28:20.066Z,9.25
2023-01-23T23:30:46.653Z,9.26
2023-01-23T23:33:13.309Z,9.26
2023-01-23T23:35:40.023Z,9.33
2023-01-23T23:38:09.885Z,9.39
2023-01-23T23:40:36.668Z,9.43
2023-01-23T23:43:05.869Z,9.46
2023-01-23T23:45:34.928Z,9.52
2023-01-23T23:48:03.904Z,9.59
2023-01-23T23:50:34.601Z,9.60
2023-01-23T23:53:01.214Z,9.66
2023-01-23T23:55:30.668Z,9.61
2023-01-23T23:57:59.684Z,9.58
